createdAt,value
2022-07-29T00:01:02.939Z,100.00
2022-07-29T00:03:30.778Z,100.00
2022-07-29T00:05:58.630Z,100.00
2022-07-29T00:08:28.532Z,100.00
2022-07-29T00:10:56.349Z,100.00
2022-07-29T00:13:32.195Z,100.00
2022-07-29T00:16:04.486Z,100.00
2022-07-29T00:18:33.159Z,100.00
2022-07-29T00:21:01.149Z,100.00
2022-07-29T00:23:30.644Z,100.00
2022-07-29T00:25:58.505Z,100.00
2022-07-29T00:28:26.286Z,100.00
2022-07-29T00:30:54.202Z,100.00
2022-07-29T00:33:24.463Z,100.00
2022-07-29T00:35:51.352Z,100.00
2022-07-29T00:38:22.054Z,100.00
2022-07-29T00:40:50.295Z,100.00
2022-07-29T00:43:19.737Z,100.00
2022-07-29T00:45:48.187Z,100.00
2022-07-29T00:48:16.567Z,100.00
2022-07-29T00:50:45.702Z,100.00
2022-07-29T00:53:14.185Z,100.00
2022-07-29T00:55:42.101Z,100.00
2022-07-29T00:58:10.620Z,100.00
2022-07-29T01:00:38.566Z,100.00
2022-07-29T01:03:06.370Z,100.00
2022-07-29T01:05:48.050Z,100.00
2022-07-29T01:08:21.021Z,100.00
2022-07-29T01:10:49.671Z,100.00
2022-07-29T01:13:18.449Z,100.00
2022-07-29T01:15:50.152Z,100.00
2022-07-29T01:18:23.136Z,100.00
2022-07-29T01:21:17.788Z,100.00
2022-07-29T01:24:17.234Z,100.00
2022-07-29T01:26:50.156Z,100.00
2022-07-29T01:29:36.143Z,100.00
2022-07-29T01:32:27.802Z,100.00
2022-07-29T01:35:00.635Z,100.00
2022-07-29T01:37:32.247Z,100.00
2022-07-29T01:40:03.266Z,100.00
2022-07-29T01:42:37.781Z,100.00
2022-07-29T01:45:12.809Z,100.00
2022-07-29T01:47:46.751Z,100.00
2022-07-29T01:50:18.134Z,100.00
2022-07-29T01:52:51.749Z,100.00
2022-07-29T01:55:22.281Z,100.00
2022-07-29T01:57:51.148Z,100.00
2022-07-29T02:00:20.947Z,100.00
2022-07-29T02:02:51.067Z,100.00
2022-07-29T02:05:22.699Z,100.00
2022-07-29T02:07:52.635Z,100.00
2022-07-29T02:10:26.247Z,100.00
2022-07-29T02:12:56.111Z,100.00
2022-07-29T02:15:27.508Z,100.00
2022-07-29T02:17:58.577Z,100.00
2022-07-29T02:20:28.216Z,100.00
2022-07-29T02:22:57.495Z,100.00
2022-07-29T02:25:38.254Z,100.00
2022-07-29T02:28:08.499Z,100.00
2022-07-29T02:30:41.232Z,100.00
2022-07-29T02:33:10.684Z,100.00
2022-07-29T02:35:40.403Z,100.00
2022-07-29T02:38:27.269Z,100.00
2022-07-29T02:40:57.336Z,100.00
2022-07-29T02:43:26.816Z,100.00
2022-07-29T02:45:58.891Z,100.00
2022-07-29T02:48:34.398Z,100.00
2022-07-29T02:51:09.152Z,100.00
2022-07-29T02:53:41.766Z,100.00
2022-07-29T02:56:15.202Z,100.00
2022-07-29T02:58:47.117Z,100.00
2022-07-29T03:01:22.147Z,100.00
2022-07-29T03:03:52.778Z,100.00
2022-07-29T03:06:37.760Z,100.00
2022-07-29T03:09:13.061Z,100.00
2022-07-29T03:11:49.866Z,100.00
2022-07-29T03:14:21.234Z,100.00
2022-07-29T03:16:52.076Z,100.00
2022-07-29T03:19:21.258Z,100.00
2022-07-29T03:21:49.548Z,100.00
2022-07-29T03:24:28.049Z,100.00
2022-07-29T03:26:57.172Z,100.00
2022-07-29T03:29:25.026Z,100.00
2022-07-29T03:32:03.616Z,100.00
2022-07-29T03:34:35.372Z,100.00
2022-07-29T03:37:03.137Z,100.00
2022-07-29T03:39:37.237Z,100.00
2022-07-29T03:42:06.692Z,100.00
2022-07-29T03:44:35.633Z,100.00
2022-07-29T03:47:08.300Z,100.00
2022-07-29T03:49:38.927Z,100.00
2022-07-29T03:52:07.665Z,100.00
2022-07-29T03:54:35.541Z,100.00
2022-07-29T03:57:05.102Z,100.00
2022-07-29T03:59:34.928Z,100.00
2022-07-29T04:02:05.393Z,100.00
2022-07-29T04:04:35.211Z,100.00
2022-07-29T04:07:03.261Z,100.00
2022-07-29T04:09:31.152Z,100.00
2022-07-29T04:12:02.146Z,100.00
2022-07-29T04:14:33.093Z,100.00
2022-07-29T04:17:01.224Z,100.00
2022-07-29T04:19:30.370Z,100.00
2022-07-29T04:21:58.380Z,100.00
2022-07-29T04:24:26.212Z,100.00
2022-07-29T04:26:55.107Z,100.00
2022-07-29T04:29:23.042Z,100.00
2022-07-29T04:31:53.701Z,100.00
2022-07-29T04:34:21.496Z,100.00
2022-07-29T04:36:56.372Z,100.00
2022-07-29T04:39:24.125Z,100.00
2022-07-29T04:41:52.551Z,100.00
2022-07-29T04:44:22.857Z,100.00
2022-07-29T04:46:56.821Z,100.00
2022-07-29T04:49:24.702Z,100.00
2022-07-29T04:51:53.874Z,100.00
2022-07-29T04:54:21.673Z,100.00
2022-07-29T04:56:49.641Z,100.00
2022-07-29T04:59:17.411Z,100.00
2022-07-29T05:01:45.308Z,100.00
2022-07-29T05:04:13.495Z,100.00
2022-07-29T05:06:41.562Z,100.00
2022-07-29T05:09:10.741Z,100.00
2022-07-29T05:11:38.472Z,100.00
2022-07-29T05:14:06.266Z,100.00
2022-07-29T05:16:34.433Z,100.00
2022-07-29T05:19:02.409Z,100.00
2022-07-29T05:21:30.196Z,100.00
2022-07-29T05:23:57.962Z,100.00
2022-07-29T05:26:27.143Z,100.00
2022-07-29T05:28:55.868Z,100.00
2022-07-29T05:31:23.696Z,100.00
2022-07-29T05:33:51.530Z,100.00
2022-07-29T05:36:19.310Z,100.00
2022-07-29T05:38:47.085Z,100.00
2022-07-29T05:41:14.894Z,100.00
2022-07-29T05:43:44.030Z,100.00
2022-07-29T05:46:11.837Z,100.00
2022-07-29T05:48:39.959Z,100.00
2022-07-29T05:51:07.963Z,100.00
2022-07-29T05:53:35.775Z,100.00
2022-07-29T05:56:05.723Z,100.00
2022-07-29T05:58:33.721Z,100.00
2022-07-29T06:01:02.956Z,100.00
2022-07-29T06:03:31.500Z,100.00
2022-07-29T06:05:59.607Z,100.00
2022-07-29T06:08:27.388Z,100.00
2022-07-29T06:10:55.391Z,100.00
2022-07-29T06:13:23.189Z,100.00
2022-07-29T06:15:50.995Z,100.00
2022-07-29T06:18:21.742Z,100.00
2022-07-29T06:20:49.523Z,100.00
2022-07-29T06:23:17.320Z,100.00
2022-07-29T06:25:45.078Z,100.00
2022-07-29T06:28:13.046Z,100.00
2022-07-29T06:30:41.197Z,100.00
2022-07-29T06:33:09.348Z,100.00
2022-07-29T06:35:42.331Z,100.00
2022-07-29T06:38:33.888Z,100.00
2022-07-29T06:41:02.082Z,100.00
2022-07-29T06:43:32.581Z,100.00
2022-07-29T06:46:04.581Z,100.00
2022-07-29T06:48:32.620Z,100.00
2022-07-29T06:51:02.692Z,100.00
2022-07-29T06:53:31.414Z,100.00
2022-07-29T06:56:00.212Z,100.00
2022-07-29T06:58:28.714Z,100.00
2022-07-29T07:00:58.447Z,100.00
2022-07-29T07:03:26.891Z,100.00
2022-07-29T07:05:55.292Z,100.00
2022-07-29T07:08:25.590Z,100.00
2022-07-29T07:10:54.343Z,100.00
2022-07-29T07:13:22.157Z,100.00
2022-07-29T07:15:51.734Z,100.00
2022-07-29T07:18:20.094Z,100.00
2022-07-29T07:20:48.512Z,100.00
2022-07-29T07:23:16.729Z,100.00
2022-07-29T07:25:46.137Z,100.00
2022-07-29T07:28:13.969Z,100.00
2022-07-29T07:30:41.805Z,100.00
2022-07-29T07:33:09.578Z,100.00
2022-07-29T07:35:37.451Z,100.00
2022-07-29T07:38:06.851Z,100.00
2022-07-29T07:40:34.882Z,100.00
2022-07-29T07:43:04.073Z,100.00
2022-07-29T07:45:33.485Z,100.00
2022-07-29T07:48:01.507Z,100.00
2022-07-29T07:50:29.378Z,100.00
2022-07-29T07:52:58.937Z,100.00
2022-07-29T07:55:27.644Z,100.00
2022-07-29T07:57:55.975Z,100.00
2022-07-29T08:00:25.218Z,100.00
2022-07-29T08:02:53.218Z,100.00
2022-07-29T08:05:21.066Z,100.00
2022-07-29T08:07:49.196Z,100.00
2022-07-29T08:10:38.844Z,100.00
2022-07-29T08:13:06.874Z,100.00
2022-07-29T08:15:36.362Z,100.00
2022-07-29T08:18:08.617Z,100.00
2022-07-29T08:20:37.426Z,100.00
2022-07-29T08:23:06.975Z,100.00
2022-07-29T08:25:38.628Z,100.00
2022-07-29T08:28:08.012Z,100.00
2022-07-29T08:30:37.314Z,100.00
2022-07-29T08:33:05.637Z,100.00
2022-07-29T08:35:35.651Z,100.00
2022-07-29T08:38:04.565Z,100.00
2022-07-29T08:40:32.977Z,100.00
2022-07-29T08:43:01.788Z,100.00
2022-07-29T08:45:31.557Z,100.00
2022-07-29T08:48:00.795Z,100.00
2022-07-29T08:50:28.592Z,100.00
2022-07-29T08:52:59.934Z,100.00
2022-07-29T08:55:28.879Z,100.00
2022-07-29T08:57:57.592Z,100.00
2022-07-29T09:00:27.280Z,100.00
2022-07-29T09:03:00.698Z,100.00
2022-07-29T09:05:28.981Z,100.00
2022-07-29T09:07:57.444Z,100.00
2022-07-29T09:10:25.498Z,99.87
2022-07-29T09:12:53.409Z,97.05
2022-07-29T09:15:21.206Z,100.00
2022-07-29T09:17:50.334Z,93.65
2022-07-29T09:20:22.541Z,95.39
2022-07-29T09:22:52.055Z,91.56
2022-07-29T09:25:34.524Z,97.07
2022-07-29T09:28:09.441Z,97.29
2022-07-29T09:30:37.875Z,99.42
2022-07-29T09:33:06.096Z,96.41
2022-07-29T09:35:35.319Z,99.61
2022-07-29T09:38:12.628Z,98.76
2022-07-29T09:40:40.890Z,100.00
2022-07-29T09:43:12.921Z,99.30
2022-07-29T09:45:41.521Z,100.00
2022-07-29T09:48:18.149Z,100.00
2022-07-29T09:50:50.552Z,93.37
2022-07-29T09:53:33.547Z,89.67
2022-07-29T09:56:01.463Z,90.32
2022-07-29T09:58:29.229Z,86.10
2022-07-29T10:00:57.786Z,85.78
2022-07-29T10:03:26.234Z,96.74
2022-07-29T10:06:09.217Z,94.94
2022-07-29T10:08:37.168Z,96.95
2022-07-29T10:11:12.879Z,88.34
2022-07-29T10:13:41.403Z,86.00
2022-07-29T10:16:10.340Z,82.80
2022-07-29T10:18:40.842Z,83.12
2022-07-29T10:21:11.030Z,85.45
2022-07-29T10:23:50.706Z,78.37
2022-07-29T10:26:19.253Z,76.45
2022-07-29T10:28:47.790Z,77.11
2022-07-29T10:31:22.844Z,76.30
2022-07-29T10:34:03.812Z,75.60
2022-07-29T10:36:47.568Z,73.81
2022-07-29T10:39:41.584Z,67.63
2022-07-29T10:42:20.374Z,59.78
2022-07-29T10:45:01.197Z,51.54
2022-07-29T10:47:29.766Z,52.21
2022-07-29T10:50:01.447Z,53.02
2022-07-29T10:52:58.573Z,53.48
2022-07-29T10:55:39.260Z,62.20
2022-07-29T10:58:15.951Z,68.43
2022-07-29T11:00:46.725Z,71.08
2022-07-29T11:03:53.820Z,74.51
2022-07-29T11:06:28.227Z,72.64
2022-07-29T11:09:35.309Z,67.99
2022-07-29T11:12:26.751Z,68.78
2022-07-29T11:15:00.026Z,75.44
2022-07-29T11:17:28.341Z,71.62
2022-07-29T11:20:33.822Z,73.27
2022-07-29T11:23:02.487Z,79.25
2022-07-29T11:25:50.389Z,77.47
2022-07-29T11:28:25.360Z,76.86
2022-07-29T11:30:54.894Z,79.49
2022-07-29T11:33:54.431Z,80.98
2022-07-29T11:36:18.216Z,79.93
2022-07-29T11:38:46.504Z,80.73
2022-07-29T11:41:27.412Z,81.75
2022-07-29T11:43:58.492Z,85.11
2022-07-29T11:46:47.466Z,85.41
2022-07-29T11:52:08.527Z,84.11
2022-07-29T11:54:57.537Z,85.25
2022-07-29T11:57:36.684Z,84.32
2022-07-29T12:00:24.804Z,85.60
2022-07-29T12:02:52.975Z,84.86
2022-07-29T12:05:35.785Z,85.92
2022-07-29T12:08:14.730Z,83.46
2022-07-29T12:10:43.239Z,82.11
2022-07-29T12:13:13.051Z,70.21
2022-07-29T12:15:46.836Z,70.03
2022-07-29T12:18:23.912Z,74.13
2022-07-29T12:20:59.391Z,77.88
2022-07-29T12:23:34.761Z,86.46
2022-07-29T12:26:07.304Z,88.00
2022-07-29T12:28:40.454Z,79.77
2022-07-29T12:31:43.635Z,79.46
2022-07-29T12:34:03.428Z,82.61
2022-07-29T12:36:31.580Z,88.06
2022-07-29T12:38:59.384Z,83.59
2022-07-29T12:41:29.334Z,82.13
2022-07-29T12:43:58.633Z,86.60
2022-07-29T12:46:26.478Z,84.82
2022-07-29T12:48:57.482Z,88.21
2022-07-29T12:51:32.055Z,91.88
2022-07-29T12:54:08.935Z,91.70
2022-07-29T12:56:44.993Z,90.21
2022-07-29T12:59:16.908Z,82.06
2022-07-29T13:01:44.754Z,79.30
2022-07-29T13:04:12.827Z,74.09
2022-07-29T13:06:42.721Z,70.04
2022-07-29T13:09:15.742Z,67.24
2022-07-29T13:11:48.662Z,72.16
2022-07-29T13:14:33.862Z,68.55
2022-07-29T13:17:03.977Z,65.08
2022-07-29T13:19:37.507Z,67.97
2022-07-29T13:22:06.061Z,65.86
2022-07-29T13:24:33.862Z,66.39
2022-07-29T13:27:01.639Z,66.06
2022-07-29T13:29:35.262Z,69.37
2022-07-29T13:32:03.019Z,71.72
2022-07-29T13:34:30.841Z,78.52
2022-07-29T13:37:00.525Z,80.96
2022-07-29T13:39:28.362Z,84.03
2022-07-29T13:41:56.646Z,84.26
2022-07-29T13:44:25.430Z,87.30
2022-07-29T13:46:54.567Z,80.79
2022-07-29T13:49:22.473Z,83.10
2022-07-29T13:51:51.257Z,86.56
2022-07-29T13:54:19.258Z,88.79
2022-07-29T13:56:47.088Z,88.55
2022-07-29T13:59:15.194Z,87.15
2022-07-29T14:01:43.581Z,86.61
2022-07-29T14:04:14.675Z,90.76
2022-07-29T14:06:42.515Z,90.82
2022-07-29T14:09:11.423Z,90.51
2022-07-29T14:11:39.633Z,88.79
2022-07-29T14:14:07.507Z,88.57
2022-07-29T14:16:38.075Z,92.92
2022-07-29T14:19:09.851Z,90.82
2022-07-29T14:21:39.031Z,91.08
2022-07-29T14:24:17.083Z,86.81
2022-07-29T14:26:49.257Z,87.75
2022-07-29T14:29:17.103Z,85.34
2022-07-29T14:31:45.002Z,89.95
2022-07-29T14:34:12.835Z,85.45
2022-07-29T14:36:41.985Z,87.60
2022-07-29T14:39:09.803Z,89.59
2022-07-29T14:41:37.634Z,87.90
2022-07-29T14:44:05.861Z,89.99
2022-07-29T14:46:33.675Z,82.66
2022-07-29T14:49:01.514Z,76.43
2022-07-29T14:51:32.471Z,68.40
2022-07-29T14:54:02.034Z,68.22
2022-07-29T14:56:37.937Z,59.68
2022-07-29T14:59:15.011Z,58.87
2022-07-29T15:01:42.815Z,65.02
2022-07-29T15:04:10.590Z,67.57
2022-07-29T15:06:38.968Z,68.33
2022-07-29T15:09:08.120Z,70.84
2022-07-29T15:11:38.719Z,72.84
2022-07-29T15:14:07.463Z,67.30
2022-07-29T15:16:37.563Z,65.12
2022-07-29T15:19:05.465Z,64.71
2022-07-29T15:21:33.244Z,65.51
2022-07-29T15:24:01.114Z,66.30
2022-07-29T15:26:30.254Z,64.56
2022-07-29T15:28:58.074Z,65.29
2022-07-29T15:31:25.970Z,68.22
2022-07-29T15:33:57.646Z,68.26
2022-07-29T15:36:50.972Z,69.69
2022-07-29T15:39:15.555Z,67.92
2022-07-29T15:41:45.099Z,67.72
2022-07-29T15:44:12.901Z,65.50
2022-07-29T15:46:58.451Z,64.43
2022-07-29T15:49:47.583Z,62.55
2022-07-29T15:52:17.617Z,66.02
2022-07-29T15:54:45.681Z,65.11
2022-07-29T15:57:15.106Z,64.23
2022-07-29T15:59:42.866Z,61.79
2022-07-29T16:02:11.173Z,61.47
2022-07-29T16:04:39.017Z,65.66
2022-07-29T16:07:07.009Z,65.45
2022-07-29T16:09:34.824Z,74.46
2022-07-29T16:12:02.605Z,78.61
2022-07-29T16:14:39.194Z,77.07
2022-07-29T16:17:07.056Z,77.44
2022-07-29T16:19:41.112Z,91.46
2022-07-29T16:22:08.930Z,98.48
2022-07-29T16:24:37.110Z,100.00
2022-07-29T16:27:05.213Z,94.13
2022-07-29T16:29:33.130Z,91.07
2022-07-29T16:32:03.402Z,98.18
2022-07-29T16:34:31.349Z,98.17
2022-07-29T16:36:59.360Z,100.00
2022-07-29T16:39:27.425Z,100.00
2022-07-29T16:41:59.656Z,100.00
2022-07-29T16:44:28.566Z,100.00
2022-07-29T16:46:58.926Z,100.00
2022-07-29T16:49:29.211Z,100.00
2022-07-29T16:51:56.967Z,100.00
2022-07-29T16:54:24.751Z,100.00
2022-07-29T16:56:52.790Z,100.00
2022-07-29T16:59:20.635Z,100.00
2022-07-29T17:01:48.876Z,100.00
2022-07-29T17:04:16.750Z,100.00
2022-07-29T17:06:45.968Z,100.00
2022-07-29T17:09:15.162Z,100.00
2022-07-29T17:11:53.722Z,100.00
2022-07-29T17:14:25.891Z,100.00
2022-07-29T17:17:00.642Z,100.00
2022-07-29T17:19:30.322Z,100.00
2022-07-29T17:22:08.970Z,100.00
2022-07-29T17:24:38.920Z,100.00
2022-07-29T17:27:08.043Z,100.00
2022-07-29T17:29:36.002Z,100.00
2022-07-29T17:32:04.321Z,100.00
2022-07-29T17:34:36.064Z,100.00
2022-07-29T17:37:05.832Z,100.00
2022-07-29T17:39:35.186Z,100.00
2022-07-29T17:42:03.459Z,100.00
2022-07-29T17:44:32.458Z,100.00
2022-07-29T17:47:04.732Z,100.00
2022-07-29T17:49:32.659Z,100.00
2022-07-29T17:52:06.054Z,100.00
2022-07-29T17:54:33.859Z,100.00
2022-07-29T17:57:01.805Z,100.00
2022-07-29T17:59:29.883Z,100.00
2022-07-29T18:01:57.685Z,100.00
2022-07-29T18:04:25.542Z,100.00
2022-07-29T18:06:53.778Z,100.00
2022-07-29T18:09:23.013Z,100.00
2022-07-29T18:11:50.817Z,100.00
2022-07-29T18:14:18.670Z,100.00
2022-07-29T18:16:46.656Z,100.00
2022-07-29T18:19:14.573Z,100.00
2022-07-29T18:21:51.240Z,100.00
2022-07-29T18:24:25.573Z,100.00
2022-07-29T18:26:53.989Z,100.00
2022-07-29T18:29:22.484Z,100.00
2022-07-29T18:31:50.454Z,100.00
2022-07-29T18:34:18.296Z,100.00
2022-07-29T18:36:46.723Z,100.00
2022-07-29T18:39:20.069Z,100.00
2022-07-29T18:41:51.609Z,100.00
2022-07-29T18:44:21.893Z,100.00
2022-07-29T18:46:51.529Z,100.00
2022-07-29T18:49:19.721Z,100.00
2022-07-29T18:51:47.889Z,100.00
2022-07-29T18:54:17.306Z,100.00
2022-07-29T18:56:45.265Z,100.00
2022-07-29T18:59:16.893Z,100.00
2022-07-29T19:01:45.276Z,100.00
2022-07-29T19:04:15.066Z,100.00
2022-07-29T19:06:42.931Z,100.00
2022-07-29T19:09:11.357Z,100.00
2022-07-29T19:11:39.789Z,100.00
2022-07-29T19:14:08.340Z,100.00
2022-07-29T19:16:37.568Z,100.00
2022-07-29T19:19:07.197Z,100.00
2022-07-29T19:21:35.023Z,100.00
2022-07-29T19:24:06.600Z,100.00
2022-07-29T19:26:36.596Z,100.00
2022-07-29T19:29:05.233Z,100.00
2022-07-29T19:31:33.112Z,100.00
2022-07-29T19:34:02.389Z,100.00
2022-07-29T19:36:31.290Z,100.00
2022-07-29T19:39:00.072Z,100.00
2022-07-29T19:41:28.383Z,100.00
2022-07-29T19:43:56.301Z,100.00
2022-07-29T19:46:28.739Z,100.00
2022-07-29T19:48:57.091Z,100.00
2022-07-29T19:51:26.962Z,100.00
2022-07-29T19:53:54.807Z,100.00
2022-07-29T19:56:25.274Z,100.00
2022-07-29T19:58:53.189Z,100.00
2022-07-29T20:01:21.479Z,100.00
2022-07-29T20:03:49.418Z,100.00
2022-07-29T20:06:17.455Z,100.00
2022-07-29T20:08:46.898Z,100.00
2022-07-29T20:11:14.720Z,100.00
2022-07-29T20:13:42.561Z,100.00
2022-07-29T20:16:10.502Z,100.00
2022-07-29T20:18:38.346Z,100.00
2022-07-29T20:21:06.181Z,100.00
2022-07-29T20:23:41.163Z,100.00
2022-07-29T20:26:10.409Z,100.00
2022-07-29T20:28:40.221Z,100.00
2022-07-29T20:31:08.709Z,100.00
2022-07-29T20:33:36.638Z,100.00
2022-07-29T20:36:04.818Z,100.00
2022-07-29T20:38:32.607Z,100.00
2022-07-29T20:41:00.382Z,100.00
2022-07-29T20:43:29.550Z,100.00
2022-07-29T20:45:57.828Z,100.00
2022-07-29T20:48:25.749Z,100.00
2022-07-29T20:50:54.953Z,100.00
2022-07-29T20:53:23.442Z,100.00
2022-07-29T20:55:51.311Z,100.00
2022-07-29T20:58:19.762Z,100.00
2022-07-29T21:00:49.119Z,100.00
2022-07-29T21:03:18.249Z,100.00
2022-07-29T21:05:46.125Z,100.00
2022-07-29T21:08:13.920Z,100.00
2022-07-29T21:10:41.759Z,100.00
2022-07-29T21:13:10.017Z,100.00
2022-07-29T21:15:38.169Z,100.00
2022-07-29T21:18:16.296Z,100.00
2022-07-29T21:20:44.071Z,100.00
2022-07-29T21:23:11.832Z,100.00
2022-07-29T21:25:39.595Z,100.00
2022-07-29T21:28:24.990Z,100.00
2022-07-29T21:30:53.516Z,100.00
2022-07-29T21:33:22.713Z,100.00
2022-07-29T21:38:39.053Z,100.00
2022-07-29T21:41:07.696Z,100.00
2022-07-29T21:43:35.460Z,100.00
2022-07-29T21:46:03.299Z,100.00
2022-07-29T21:48:32.512Z,100.00
2022-07-29T21:51:00.287Z,100.00
2022-07-29T21:53:28.110Z,100.00
2022-07-29T21:55:55.921Z,100.00
2022-07-29T21:58:24.687Z,100.00
2022-07-29T22:00:52.917Z,100.00
2022-07-29T22:03:20.734Z,100.00
2022-07-29T22:05:49.895Z,100.00
2022-07-29T22:08:17.613Z,100.00
2022-07-29T22:10:45.463Z,100.00
2022-07-29T22:13:13.244Z,100.00
2022-07-29T22:15:45.342Z,100.00
2022-07-29T22:18:19.486Z,100.00
2022-07-29T22:20:50.499Z,100.00
2022-07-29T22:23:18.337Z,100.00
2022-07-29T22:25:46.113Z,100.00
2022-07-29T22:28:13.884Z,100.00
2022-07-29T22:30:42.001Z,100.00
2022-07-29T22:33:09.871Z,100.00
2022-07-29T22:35:48.528Z,100.00
2022-07-29T22:38:18.785Z,100.00
2022-07-29T22:40:46.962Z,100.00
2022-07-29T22:43:16.585Z,100.00
2022-07-29T22:45:44.417Z,100.00
2022-07-29T22:48:12.360Z,100.00
2022-07-29T22:50:40.215Z,100.00
2022-07-29T22:53:08.026Z,100.00
2022-07-29T22:55:37.186Z,100.00
2022-07-29T22:58:04.981Z,100.00
2022-07-29T23:00:32.793Z,100.00
2022-07-29T23:03:00.680Z,100.00
2022-07-29T23:05:28.420Z,100.00
2022-07-29T23:07:56.319Z,100.00
2022-07-29T23:10:24.085Z,100.00
2022-07-29T23:12:53.260Z,100.00
2022-07-29T23:15:21.164Z,100.00
2022-07-29T23:17:48.960Z,100.00
2022-07-29T23:20:16.726Z,100.00
2022-07-29T23:22:44.494Z,100.00
2022-07-29T23:25:12.245Z,100.00
2022-07-29T23:27:40.076Z,100.00
2022-07-29T23:30:10.560Z,100.00
2022-07-29T23:32:38.360Z,100.00
2022-07-29T23:35:07.678Z,100.00
2022-07-29T23:37:35.525Z,100.00
2022-07-29T23:40:03.432Z,100.00
2022-07-29T23:42:31.229Z,100.00
2022-07-29T23:44:59.014Z,100.00
2022-07-29T23:47:28.994Z,100.00
2022-07-29T23:49:57.155Z,100.00
2022-07-29T23:52:24.983Z,100.00
2022-07-29T23:54:53.140Z,100.00
2022-07-29T23:57:22.828Z,100.00
2022-07-29T23:59:50.964Z,100.00
